Terminal Aerodrome Forecast
Issued by NWS

Home | Current Version | Previous Version | Graphics & Text | Print | Product List | Glossary On
Versions: 1 2 3 4 5 6 7 8 9 10 11 12
070
FTUS45 KGGW 071720
TAFSDY
TAF
KSDY 071720Z 0718/0818 32028G40KT P6SM FEW040
     FM080000 32018KT P6SM SCT130
     FM081200 30009KT P6SM BKN140
      AMD LTD TO CLD VIS AND WIND=

USA.gov is the U.S. government's official web portal to all federal, state and local government web resources and services.